sensor_id;sensor_type;location;lat;lon;timestamp;P1;durP1;ratioP1;P2;durP2;ratioP2
46447;SDS011;32145;50.390;30.778;2023-05-14T00:01:40;4.72;;;2.58;;
46447;SDS011;32145;50.390;30.778;2023-05-14T00:04:38;7.78;;;3.20;;
46447;SDS011;32145;50.390;30.778;2023-05-14T00:07:34;6.43;;;3.00;;
46447;SDS011;32145;50.390;30.778;2023-05-14T00:10:30;7.65;;;3.45;;
46447;SDS011;32145;50.390;30.778;2023-05-14T00:13:26;5.57;;;3.20;;
46447;SDS011;32145;50.390;30.778;2023-05-14T00:16:23;5.63;;;3.00;;
46447;SDS011;32145;50.390;30.778;2023-05-14T00:19:19;5.97;;;3.70;;
46447;SDS011;32145;50.390;30.778;2023-05-14T00:22:17;7.95;;;3.20;;
46447;SDS011;32145;50.390;30.778;2023-05-14T00:25:13;6.32;;;3.60;;
46447;SDS011;32145;50.390;30.778;2023-05-14T00:28:10;6.22;;;3.75;;
46447;SDS011;32145;50.390;30.778;2023-05-14T00:31:04;7.35;;;3.80;;
46447;SDS011;32145;50.390;30.778;2023-05-14T00:33:58;7.20;;;4.35;;
46447;SDS011;32145;50.390;30.778;2023-05-14T00:36:53;6.05;;;4.00;;
46447;SDS011;32145;50.390;30.778;2023-05-14T00:39:48;6.20;;;3.97;;
46447;SDS011;32145;50.390;30.778;2023-05-14T00:42:44;9.50;;;3.97;;
46447;SDS011;32145;50.390;30.778;2023-05-14T00:45:41;8.00;;;4.00;;
46447;SDS011;32145;50.390;30.778;2023-05-14T00:48:37;6.47;;;4.10;;
46447;SDS011;32145;50.390;30.778;2023-05-14T00:51:33;6.72;;;3.80;;
46447;SDS011;32145;50.390;30.778;2023-05-14T00:54:30;7.85;;;3.67;;
46447;SDS011;32145;50.390;30.778;2023-05-14T00:57:26;6.68;;;3.63;;
46447;SDS011;32145;50.390;30.778;2023-05-14T01:00:20;6.05;;;3.80;;
46447;SDS011;32145;50.390;30.778;2023-05-14T01:03:14;6.10;;;3.60;;
46447;SDS011;32145;50.390;30.778;2023-05-14T01:06:10;5.57;;;3.63;;
46447;SDS011;32145;50.390;30.778;2023-05-14T01:09:12;7.68;;;3.60;;
46447;SDS011;32145;50.390;30.778;2023-05-14T01:12:15;7.82;;;3.65;;
46447;SDS011;32145;50.390;30.778;2023-05-14T01:15:14;7.07;;;3.70;;
46447;SDS011;32145;50.390;30.778;2023-05-14T01:18:15;7.43;;;3.92;;
46447;SDS011;32145;50.390;30.778;2023-05-14T01:24:28;9.82;;;4.07;;
46447;SDS011;32145;50.390;30.778;2023-05-14T01:27:23;6.85;;;4.20;;
46447;SDS011;32145;50.390;30.778;2023-05-14T01:30:32;6.70;;;3.88;;
46447;SDS011;32145;50.390;30.778;2023-05-14T01:33:28;9.57;;;4.43;;
46447;SDS011;32145;50.390;30.778;2023-05-14T01:36:29;6.82;;;4.25;;
46447;SDS011;32145;50.390;30.778;2023-05-14T01:39:26;8.40;;;4.35;;
46447;SDS011;32145;50.390;30.778;2023-05-14T01:42:23;10.10;;;4.53;;
46447;SDS011;32145;50.390;30.778;2023-05-14T01:45:20;6.18;;;4.03;;
46447;SDS011;32145;50.390;30.778;2023-05-14T01:48:15;9.18;;;4.38;;
46447;SDS011;32145;50.390;30.778;2023-05-14T01:51:09;6.43;;;4.22;;
46447;SDS011;32145;50.390;30.778;2023-05-14T01:54:05;9.50;;;4.20;;
46447;SDS011;32145;50.390;30.778;2023-05-14T01:56:59;6.75;;;4.00;;
46447;SDS011;32145;50.390;30.778;2023-05-14T01:59:53;6.70;;;4.30;;
46447;SDS011;32145;50.390;30.778;2023-05-14T02:02:47;7.38;;;4.43;;
46447;SDS011;32145;50.390;30.778;2023-05-14T02:05:41;6.70;;;4.22;;
46447;SDS011;32145;50.390;30.778;2023-05-14T02:08:36;6.85;;;4.50;;
46447;SDS011;32145;50.390;30.778;2023-05-14T02:11:32;7.70;;;4.75;;
46447;SDS011;32145;50.390;30.778;2023-05-14T02:14:26;6.90;;;4.10;;
46447;SDS011;32145;50.390;30.778;2023-05-14T02:17:20;6.57;;;4.10;;
46447;SDS011;32145;50.390;30.778;2023-05-14T02:20:15;6.47;;;4.15;;
46447;SDS011;32145;50.390;30.778;2023-05-14T02:23:09;8.15;;;3.92;;
46447;SDS011;32145;50.390;30.778;2023-05-14T02:26:03;7.82;;;4.30;;
46447;SDS011;32145;50.390;30.778;2023-05-14T02:28:59;7.20;;;4.38;;
46447;SDS011;32145;50.390;30.778;2023-05-14T02:31:54;7.05;;;4.43;;
46447;SDS011;32145;50.390;30.778;2023-05-14T02:34:48;7.18;;;3.95;;
46447;SDS011;32145;50.390;30.778;2023-05-14T02:37:43;7.07;;;4.43;;
46447;SDS011;32145;50.390;30.778;2023-05-14T02:40:37;8.18;;;4.40;;
46447;SDS011;32145;50.390;30.778;2023-05-14T02:43:31;8.70;;;3.88;;
46447;SDS011;32145;50.390;30.778;2023-05-14T02:46:27;6.45;;;4.18;;
46447;SDS011;32145;50.390;30.778;2023-05-14T02:49:21;8.52;;;4.57;;
46447;SDS011;32145;50.390;30.778;2023-05-14T02:52:15;9.18;;;4.90;;
46447;SDS011;32145;50.390;30.778;2023-05-14T02:55:10;7.35;;;4.35;;
46447;SDS011;32145;50.390;30.778;2023-05-14T02:58:06;7.93;;;4.38;;
46447;SDS011;32145;50.390;30.778;2023-05-14T03:01:02;7.97;;;4.05;;
46447;SDS011;32145;50.390;30.778;2023-05-14T03:04:00;8.25;;;4.07;;
46447;SDS011;32145;50.390;30.778;2023-05-14T03:06:56;7.80;;;4.03;;
46447;SDS011;32145;50.390;30.778;2023-05-14T03:09:52;7.45;;;4.43;;
46447;SDS011;32145;50.390;30.778;2023-05-14T03:12:48;6.75;;;3.92;;
46447;SDS011;32145;50.390;30.778;2023-05-14T03:15:45;6.22;;;4.18;;
46447;SDS011;32145;50.390;30.778;2023-05-14T03:18:42;6.72;;;4.20;;
46447;SDS011;32145;50.390;30.778;2023-05-14T03:21:39;7.50;;;4.28;;
46447;SDS011;32145;50.390;30.778;2023-05-14T03:24:36;9.82;;;4.32;;
46447;SDS011;32145;50.390;30.778;2023-05-14T03:27:33;10.57;;;4.30;;
46447;SDS011;32145;50.390;30.778;2023-05-14T03:30:29;8.15;;;4.25;;
46447;SDS011;32145;50.390;30.778;2023-05-14T03:33:25;9.00;;;4.45;;
46447;SDS011;32145;50.390;30.778;2023-05-14T03:36:22;10.07;;;4.03;;
46447;SDS011;32145;50.390;30.778;2023-05-14T03:39:20;7.00;;;3.90;;
46447;SDS011;32145;50.390;30.778;2023-05-14T03:42:16;7.82;;;4.40;;
46447;SDS011;32145;50.390;30.778;2023-05-14T03:45:13;7.43;;;4.50;;
46447;SDS011;32145;50.390;30.778;2023-05-14T03:48:07;7.40;;;4.38;;
46447;SDS011;32145;50.390;30.778;2023-05-14T03:51:02;8.98;;;4.60;;
46447;SDS011;32145;50.390;30.778;2023-05-14T03:53:56;9.02;;;3.85;;
46447;SDS011;32145;50.390;30.778;2023-05-14T03:56:51;9.63;;;4.00;;
46447;SDS011;32145;50.390;30.778;2023-05-14T03:59:48;5.80;;;3.50;;
46447;SDS011;32145;50.390;30.778;2023-05-14T04:02:44;7.20;;;3.90;;
46447;SDS011;32145;50.390;30.778;2023-05-14T04:05:41;7.05;;;3.78;;
46447;SDS011;32145;50.390;30.778;2023-05-14T04:08:37;5.47;;;2.97;;
46447;SDS011;32145;50.390;30.778;2023-05-14T04:11:33;4.80;;;2.88;;
46447;SDS011;32145;50.390;30.778;2023-05-14T04:14:29;4.35;;;2.83;;
46447;SDS011;32145;50.390;30.778;2023-05-14T04:17:23;5.35;;;3.00;;
46447;SDS011;32145;50.390;30.778;2023-05-14T04:20:17;6.90;;;3.40;;
46447;SDS011;32145;50.390;30.778;2023-05-14T04:23:11;5.20;;;3.33;;
46447;SDS011;32145;50.390;30.778;2023-05-14T04:26:06;7.10;;;3.38;;
46447;SDS011;32145;50.390;30.778;2023-05-14T04:29:00;9.73;;;4.03;;
46447;SDS011;32145;50.390;30.778;2023-05-14T04:31:58;5.07;;;3.30;;
46447;SDS011;32145;50.390;30.778;2023-05-14T04:34:54;7.82;;;3.15;;
46447;SDS011;32145;50.390;30.778;2023-05-14T04:37:50;7.35;;;3.08;;
46447;SDS011;32145;50.390;30.778;2023-05-14T04:40:46;10.05;;;5.80;;
46447;SDS011;32145;50.390;30.778;2023-05-14T04:43:43;8.23;;;3.13;;
46447;SDS011;32145;50.390;30.778;2023-05-14T04:46:37;6.45;;;2.90;;
46447;SDS011;32145;50.390;30.778;2023-05-14T04:49:32;5.97;;;3.00;;
46447;SDS011;32145;50.390;30.778;2023-05-14T04:52:27;6.25;;;2.83;;
46447;SDS011;32145;50.390;30.778;2023-05-14T04:55:21;5.47;;;2.65;;
46447;SDS011;32145;50.390;30.778;2023-05-14T04:58:18;4.40;;;2.90;;
46447;SDS011;32145;50.390;30.778;2023-05-14T05:01:14;6.45;;;3.10;;
46447;SDS011;32145;50.390;30.778;2023-05-14T05:04:10;5.57;;;2.70;;
46447;SDS011;32145;50.390;30.778;2023-05-14T05:07:08;5.72;;;2.90;;
46447;SDS011;32145;50.390;30.778;2023-05-14T05:10:05;4.78;;;2.58;;
46447;SDS011;32145;50.390;30.778;2023-05-14T05:13:02;5.10;;;2.67;;
46447;SDS011;32145;50.390;30.778;2023-05-14T05:15:58;4.10;;;2.63;;
46447;SDS011;32145;50.390;30.778;2023-05-14T05:18:54;5.57;;;2.60;;
46447;SDS011;32145;50.390;30.778;2023-05-14T05:21:51;6.32;;;3.40;;
46447;SDS011;32145;50.390;30.778;2023-05-14T05:24:49;6.45;;;2.97;;
46447;SDS011;32145;50.390;30.778;2023-05-14T05:27:45;5.28;;;2.70;;
46447;SDS011;32145;50.390;30.778;2023-05-14T05:30:42;5.22;;;2.60;;
46447;SDS011;32145;50.390;30.778;2023-05-14T05:33:38;4.85;;;2.40;;
46447;SDS011;32145;50.390;30.778;2023-05-14T05:36:34;5.63;;;2.50;;
46447;SDS011;32145;50.390;30.778;2023-05-14T05:39:30;5.45;;;2.72;;
46447;SDS011;32145;50.390;30.778;2023-05-14T05:42:28;5.10;;;2.63;;
46447;SDS011;32145;50.390;30.778;2023-05-14T05:45:25;6.22;;;2.95;;
46447;SDS011;32145;50.390;30.778;2023-05-14T05:48:21;4.70;;;2.33;;
46447;SDS011;32145;50.390;30.778;2023-05-14T05:51:17;8.20;;;2.50;;
46447;SDS011;32145;50.390;30.778;2023-05-14T05:54:14;5.20;;;2.70;;
46447;SDS011;32145;50.390;30.778;2023-05-14T05:57:08;5.15;;;2.53;;
46447;SDS011;32145;50.390;30.778;2023-05-14T06:00:04;6.70;;;3.25;;
46447;SDS011;32145;50.390;30.778;2023-05-14T06:03:02;6.03;;;2.58;;
46447;SDS011;32145;50.390;30.778;2023-05-14T06:05:58;4.22;;;2.40;;
46447;SDS011;32145;50.390;30.778;2023-05-14T06:08:54;7.13;;;2.45;;
46447;SDS011;32145;50.390;30.778;2023-05-14T06:11:48;3.50;;;2.42;;
46447;SDS011;32145;50.390;30.778;2023-05-14T06:14:42;5.18;;;2.50;;
46447;SDS011;32145;50.390;30.778;2023-05-14T06:17:38;4.47;;;2.63;;
46447;SDS011;32145;50.390;30.778;2023-05-14T06:20:33;4.50;;;2.42;;
46447;SDS011;32145;50.390;30.778;2023-05-14T06:23:29;6.35;;;2.40;;
46447;SDS011;32145;50.390;30.778;2023-05-14T06:26:25;7.20;;;2.80;;
46447;SDS011;32145;50.390;30.778;2023-05-14T06:29:19;5.88;;;2.75;;
46447;SDS011;32145;50.390;30.778;2023-05-14T06:32:14;3.72;;;2.70;;
46447;SDS011;32145;50.390;30.778;2023-05-14T06:35:10;4.95;;;2.95;;
46447;SDS011;32145;50.390;30.778;2023-05-14T06:38:04;4.80;;;2.28;;
46447;SDS011;32145;50.390;30.778;2023-05-14T06:40:59;5.68;;;2.50;;
46447;SDS011;32145;50.390;30.778;2023-05-14T06:43:54;5.05;;;2.60;;
46447;SDS011;32145;50.390;30.778;2023-05-14T06:46:50;6.72;;;2.70;;
46447;SDS011;32145;50.390;30.778;2023-05-14T06:49:46;4.95;;;2.50;;
46447;SDS011;32145;50.390;30.778;2023-05-14T06:52:44;4.63;;;2.38;;
46447;SDS011;32145;50.390;30.778;2023-05-14T06:55:40;3.42;;;2.33;;
46447;SDS011;32145;50.390;30.778;2023-05-14T06:58:37;4.80;;;2.40;;
46447;SDS011;32145;50.390;30.778;2023-05-14T07:01:33;5.88;;;2.70;;
46447;SDS011;32145;50.390;30.778;2023-05-14T07:04:30;5.05;;;2.25;;
46447;SDS011;32145;50.390;30.778;2023-05-14T07:07:26;3.88;;;2.30;;
46447;SDS011;32145;50.390;30.778;2023-05-14T07:10:24;5.22;;;2.70;;
46447;SDS011;32145;50.390;30.778;2023-05-14T07:13:20;5.53;;;2.67;;
46447;SDS011;32145;50.390;30.778;2023-05-14T07:16:16;4.40;;;2.22;;
46447;SDS011;32145;50.390;30.778;2023-05-14T07:19:12;6.95;;;2.65;;
46447;SDS011;32145;50.390;30.778;2023-05-14T07:22:09;3.40;;;2.20;;
46447;SDS011;32145;50.390;30.778;2023-05-14T07:25:05;6.70;;;2.55;;
46447;SDS011;32145;50.390;30.778;2023-05-14T07:28:01;5.00;;;3.20;;
46447;SDS011;32145;50.390;30.778;2023-05-14T07:30:55;7.18;;;3.78;;
46447;SDS011;32145;50.390;30.778;2023-05-14T07:33:49;8.32;;;3.80;;
46447;SDS011;32145;50.390;30.778;2023-05-14T07:36:44;8.52;;;2.75;;
46447;SDS011;32145;50.390;30.778;2023-05-14T07:39:39;4.88;;;2.50;;
46447;SDS011;32145;50.390;30.778;2023-05-14T07:42:33;5.93;;;2.97;;
46447;SDS011;32145;50.390;30.778;2023-05-14T07:45:31;4.35;;;2.33;;
46447;SDS011;32145;50.390;30.778;2023-05-14T07:48:27;3.35;;;2.20;;
46447;SDS011;32145;50.390;30.778;2023-05-14T07:51:23;3.90;;;2.45;;
46447;SDS011;32145;50.390;30.778;2023-05-14T07:54:19;4.05;;;2.35;;
46447;SDS011;32145;50.390;30.778;2023-05-14T07:57:16;4.55;;;2.30;;
46447;SDS011;32145;50.390;30.778;2023-05-14T08:00:12;6.85;;;3.10;;
46447;SDS011;32145;50.390;30.778;2023-05-14T08:03:10;5.13;;;3.25;;
46447;SDS011;32145;50.390;30.778;2023-05-14T08:06:06;5.45;;;2.92;;
46447;SDS011;32145;50.390;30.778;2023-05-14T08:09:01;5.40;;;2.85;;
46447;SDS011;32145;50.390;30.778;2023-05-14T08:11:55;7.53;;;3.10;;
46447;SDS011;32145;50.390;30.778;2023-05-14T08:14:49;8.85;;;4.22;;
46447;SDS011;32145;50.390;30.778;2023-05-14T08:17:44;7.25;;;2.83;;
46447;SDS011;32145;50.390;30.778;2023-05-14T08:20:39;6.43;;;3.05;;
46447;SDS011;32145;50.390;30.778;2023-05-14T08:23:34;6.13;;;3.03;;
46447;SDS011;32145;50.390;30.778;2023-05-14T08:26:30;5.90;;;2.67;;
46447;SDS011;32145;50.390;30.778;2023-05-14T08:29:26;5.75;;;2.90;;
46447;SDS011;32145;50.390;30.778;2023-05-14T08:32:23;5.05;;;2.83;;
46447;SDS011;32145;50.390;30.778;2023-05-14T08:35:19;4.72;;;2.20;;
46447;SDS011;32145;50.390;30.778;2023-05-14T08:38:17;3.65;;;2.38;;
46447;SDS011;32145;50.390;30.778;2023-05-14T08:41:11;5.25;;;2.80;;
46447;SDS011;32145;50.390;30.778;2023-05-14T08:44:10;4.63;;;2.10;;
46447;SDS011;32145;50.390;30.778;2023-05-14T08:47:06;3.83;;;1.80;;
46447;SDS011;32145;50.390;30.778;2023-05-14T08:50:01;4.68;;;1.70;;
46447;SDS011;32145;50.390;30.778;2023-05-14T08:52:57;4.18;;;1.90;;
46447;SDS011;32145;50.390;30.778;2023-05-14T08:55:53;3.70;;;2.20;;
46447;SDS011;32145;50.390;30.778;2023-05-14T08:58:47;3.85;;;1.90;;
46447;SDS011;32145;50.390;30.778;2023-05-14T09:01:42;4.20;;;1.85;;
46447;SDS011;32145;50.390;30.778;2023-05-14T09:04:39;6.90;;;2.20;;
46447;SDS011;32145;50.390;30.778;2023-05-14T09:07:34;4.60;;;2.30;;
46447;SDS011;32145;50.390;30.778;2023-05-14T09:10:30;5.03;;;2.55;;
46447;SDS011;32145;50.390;30.778;2023-05-14T09:13:28;5.85;;;2.08;;
46447;SDS011;32145;50.390;30.778;2023-05-14T09:16:22;4.85;;;2.50;;
46447;SDS011;32145;50.390;30.778;2023-05-14T09:19:18;4.90;;;2.15;;
46447;SDS011;32145;50.390;30.778;2023-05-14T09:22:14;5.13;;;2.40;;
46447;SDS011;32145;50.390;30.778;2023-05-14T09:25:10;4.85;;;2.28;;
46447;SDS011;32145;50.390;30.778;2023-05-14T09:28:05;4.05;;;2.22;;
46447;SDS011;32145;50.390;30.778;2023-05-14T09:31:02;4.47;;;2.20;;
46447;SDS011;32145;50.390;30.778;2023-05-14T09:33:57;7.72;;;2.40;;
46447;SDS011;32145;50.390;30.778;2023-05-14T09:36:56;4.50;;;2.70;;
46447;SDS011;32145;50.390;30.778;2023-05-14T09:39:51;5.97;;;2.65;;
46447;SDS011;32145;50.390;30.778;2023-05-14T09:42:46;5.65;;;2.22;;
46447;SDS011;32145;50.390;30.778;2023-05-14T09:45:41;6.63;;;2.30;;
46447;SDS011;32145;50.390;30.778;2023-05-14T09:48:37;4.30;;;2.15;;
46447;SDS011;32145;50.390;30.778;2023-05-14T09:51:33;10.05;;;2.20;;
46447;SDS011;32145;50.390;30.778;2023-05-14T09:54:31;3.78;;;2.40;;
46447;SDS011;32145;50.390;30.778;2023-05-14T09:57:28;3.75;;;1.98;;
46447;SDS011;32145;50.390;30.778;2023-05-14T10:00:24;7.45;;;2.25;;
46447;SDS011;32145;50.390;30.778;2023-05-14T10:03:20;4.43;;;2.33;;
46447;SDS011;32145;50.390;30.778;2023-05-14T10:06:22;4.80;;;2.30;;
46447;SDS011;32145;50.390;30.778;2023-05-14T10:09:20;4.20;;;2.50;;
46447;SDS011;32145;50.390;30.778;2023-05-14T10:12:18;6.82;;;2.30;;
46447;SDS011;32145;50.390;30.778;2023-05-14T10:15:15;5.10;;;2.30;;
46447;SDS011;32145;50.390;30.778;2023-05-14T10:18:13;5.32;;;2.20;;
46447;SDS011;32145;50.390;30.778;2023-05-14T10:21:10;3.42;;;2.05;;
46447;SDS011;32145;50.390;30.778;2023-05-14T10:24:08;4.47;;;2.30;;
46447;SDS011;32145;50.390;30.778;2023-05-14T10:27:03;7.45;;;2.15;;
46447;SDS011;32145;50.390;30.778;2023-05-14T10:29:58;5.47;;;2.05;;
46447;SDS011;32145;50.390;30.778;2023-05-14T10:33:05;5.30;;;2.20;;
46447;SDS011;32145;50.390;30.778;2023-05-14T10:36:00;6.72;;;2.30;;
46447;SDS011;32145;50.390;30.778;2023-05-14T10:38:57;3.78;;;2.55;;
46447;SDS011;32145;50.390;30.778;2023-05-14T10:41:54;3.90;;;2.25;;
46447;SDS011;32145;50.390;30.778;2023-05-14T10:44:52;6.20;;;2.25;;
46447;SDS011;32145;50.390;30.778;2023-05-14T10:47:47;4.20;;;2.30;;
46447;SDS011;32145;50.390;30.778;2023-05-14T10:50:42;6.38;;;2.38;;
46447;SDS011;32145;50.390;30.778;2023-05-14T10:53:39;6.05;;;2.28;;
46447;SDS011;32145;50.390;30.778;2023-05-14T10:56:33;7.10;;;2.58;;
46447;SDS011;32145;50.390;30.778;2023-05-14T10:59:33;5.90;;;2.28;;
46447;SDS011;32145;50.390;30.778;2023-05-14T11:02:30;4.85;;;2.35;;
46447;SDS011;32145;50.390;30.778;2023-05-14T11:05:27;5.93;;;2.40;;
46447;SDS011;32145;50.390;30.778;2023-05-14T11:08:23;4.82;;;2.47;;
46447;SDS011;32145;50.390;30.778;2023-05-14T11:11:21;4.95;;;2.40;;
46447;SDS011;32145;50.390;30.778;2023-05-14T11:14:18;4.47;;;2.20;;
46447;SDS011;32145;50.390;30.778;2023-05-14T11:17:13;6.55;;;3.03;;
46447;SDS011;32145;50.390;30.778;2023-05-14T11:20:10;6.22;;;4.50;;
46447;SDS011;32145;50.390;30.778;2023-05-14T11:23:07;6.60;;;3.80;;
46447;SDS011;32145;50.390;30.778;2023-05-14T11:26:01;5.65;;;2.30;;
46447;SDS011;32145;50.390;30.778;2023-05-14T11:28:56;5.65;;;2.47;;
46447;SDS011;32145;50.390;30.778;2023-05-14T11:31:52;5.95;;;2.40;;
46447;SDS011;32145;50.390;30.778;2023-05-14T11:34:48;4.93;;;2.25;;
46447;SDS011;32145;50.390;30.778;2023-05-14T11:37:42;4.43;;;2.38;;
46447;SDS011;32145;50.390;30.778;2023-05-14T11:40:42;4.32;;;2.33;;
46447;SDS011;32145;50.390;30.778;2023-05-14T11:43:43;5.22;;;2.53;;
46447;SDS011;32145;50.390;30.778;2023-05-14T11:46:38;5.65;;;2.42;;
46447;SDS011;32145;50.390;30.778;2023-05-14T11:49:32;3.45;;;2.30;;
46447;SDS011;32145;50.390;30.778;2023-05-14T11:52:28;6.38;;;2.28;;
46447;SDS011;32145;50.390;30.778;2023-05-14T11:55:24;7.07;;;2.80;;
46447;SDS011;32145;50.390;30.778;2023-05-14T11:58:20;6.35;;;2.40;;
46447;SDS011;32145;50.390;30.778;2023-05-14T12:01:16;5.50;;;2.40;;
46447;SDS011;32145;50.390;30.778;2023-05-14T12:04:13;6.10;;;2.53;;
46447;SDS011;32145;50.390;30.778;2023-05-14T12:07:10;5.90;;;3.03;;
46447;SDS011;32145;50.390;30.778;2023-05-14T12:10:07;3.72;;;2.22;;
46447;SDS011;32145;50.390;30.778;2023-05-14T12:13:05;5.13;;;2.40;;
46447;SDS011;32145;50.390;30.778;2023-05-14T12:15:59;4.40;;;2.20;;
46447;SDS011;32145;50.390;30.778;2023-05-14T12:18:54;5.72;;;2.28;;
46447;SDS011;32145;50.390;30.778;2023-05-14T12:21:52;3.83;;;2.37;;
46447;SDS011;32145;50.390;30.778;2023-05-14T12:24:51;3.78;;;2.50;;
46447;SDS011;32145;50.390;30.778;2023-05-14T12:27:49;5.47;;;2.38;;
46447;SDS011;32145;50.390;30.778;2023-05-14T12:30:46;6.32;;;2.58;;
46447;SDS011;32145;50.390;30.778;2023-05-14T12:33:42;4.43;;;2.30;;
46447;SDS011;32145;50.390;30.778;2023-05-14T12:36:36;6.82;;;2.45;;
46447;SDS011;32145;50.390;30.778;2023-05-14T12:39:31;4.30;;;2.70;;
46447;SDS011;32145;50.390;30.778;2023-05-14T12:42:26;4.50;;;2.50;;
46447;SDS011;32145;50.390;30.778;2023-05-14T12:45:22;6.07;;;2.50;;
46447;SDS011;32145;50.390;30.778;2023-05-14T12:48:16;5.85;;;2.40;;
46447;SDS011;32145;50.390;30.778;2023-05-14T12:51:11;6.38;;;2.95;;
46447;SDS011;32145;50.390;30.778;2023-05-14T12:54:05;7.85;;;2.45;;
46447;SDS011;32145;50.390;30.778;2023-05-14T12:57:00;5.03;;;2.47;;
46447;SDS011;32145;50.390;30.778;2023-05-14T12:59:54;10.27;;;2.53;;
46447;SDS011;32145;50.390;30.778;2023-05-14T13:02:50;6.68;;;3.25;;
46447;SDS011;32145;50.390;30.778;2023-05-14T13:05:44;8.15;;;3.33;;
46447;SDS011;32145;50.390;30.778;2023-05-14T13:08:39;8.80;;;3.42;;
46447;SDS011;32145;50.390;30.778;2023-05-14T13:11:33;5.53;;;2.40;;
46447;SDS011;32145;50.390;30.778;2023-05-14T13:14:29;5.30;;;2.42;;
46447;SDS011;32145;50.390;30.778;2023-05-14T13:17:24;6.10;;;2.50;;
46447;SDS011;32145;50.390;30.778;2023-05-14T13:20:19;6.25;;;3.15;;
46447;SDS011;32145;50.390;30.778;2023-05-14T13:23:16;7.93;;;3.20;;
46447;SDS011;32145;50.390;30.778;2023-05-14T13:26:12;7.05;;;3.88;;
46447;SDS011;32145;50.390;30.778;2023-05-14T13:29:09;8.45;;;3.47;;
46447;SDS011;32145;50.390;30.778;2023-05-14T13:32:05;6.68;;;2.90;;
46447;SDS011;32145;50.390;30.778;2023-05-14T13:35:02;3.60;;;2.45;;
46447;SDS011;32145;50.390;30.778;2023-05-14T13:38:00;4.45;;;2.60;;
46447;SDS011;32145;50.390;30.778;2023-05-14T13:40:56;4.47;;;3.50;;
46447;SDS011;32145;50.390;30.778;2023-05-14T13:43:52;5.60;;;2.60;;
46447;SDS011;32145;50.390;30.778;2023-05-14T13:46:49;6.32;;;2.63;;
46447;SDS011;32145;50.390;30.778;2023-05-14T13:49:45;3.97;;;2.63;;
46447;SDS011;32145;50.390;30.778;2023-05-14T13:52:41;5.07;;;3.00;;
46447;SDS011;32145;50.390;30.778;2023-05-14T13:55:39;7.32;;;2.60;;
46447;SDS011;32145;50.390;30.778;2023-05-14T13:58:35;4.78;;;2.63;;
46447;SDS011;32145;50.390;30.778;2023-05-14T14:01:32;4.38;;;2.30;;
46447;SDS011;32145;50.390;30.778;2023-05-14T14:04:28;4.10;;;2.28;;
46447;SDS011;32145;50.390;30.778;2023-05-14T14:07:24;4.47;;;2.47;;
46447;SDS011;32145;50.390;30.778;2023-05-14T14:10:21;5.38;;;2.47;;
46447;SDS011;32145;50.390;30.778;2023-05-14T14:13:16;6.72;;;4.25;;
46447;SDS011;32145;50.390;30.778;2023-05-14T14:16:11;9.98;;;4.60;;
46447;SDS011;32145;50.390;30.778;2023-05-14T14:19:05;8.15;;;3.47;;
46447;SDS011;32145;50.390;30.778;2023-05-14T14:21:59;7.15;;;2.88;;
46447;SDS011;32145;50.390;30.778;2023-05-14T14:24:56;6.57;;;3.60;;
46447;SDS011;32145;50.390;30.778;2023-05-14T14:27:52;4.35;;;2.53;;
46447;SDS011;32145;50.390;30.778;2023-05-14T14:30:50;8.70;;;2.65;;
46447;SDS011;32145;50.390;30.778;2023-05-14T14:33:46;6.10;;;2.80;;
46447;SDS011;32145;50.390;30.778;2023-05-14T14:36:40;6.03;;;3.10;;
46447;SDS011;32145;50.390;30.778;2023-05-14T14:39:35;4.63;;;2.72;;
46447;SDS011;32145;50.390;30.778;2023-05-14T14:42:29;5.75;;;2.55;;
46447;SDS011;32145;50.390;30.778;2023-05-14T14:45:24;5.50;;;2.92;;
46447;SDS011;32145;50.390;30.778;2023-05-14T14:48:23;4.45;;;2.65;;
46447;SDS011;32145;50.390;30.778;2023-05-14T14:51:19;7.25;;;2.70;;
46447;SDS011;32145;50.390;30.778;2023-05-14T14:54:13;7.22;;;2.95;;
46447;SDS011;32145;50.390;30.778;2023-05-14T14:57:07;5.88;;;2.97;;
46447;SDS011;32145;50.390;30.778;2023-05-14T15:00:02;5.43;;;2.85;;
46447;SDS011;32145;50.390;30.778;2023-05-14T15:02:58;5.50;;;3.00;;
46447;SDS011;32145;50.390;30.778;2023-05-14T15:05:56;9.48;;;3.15;;
46447;SDS011;32145;50.390;30.778;2023-05-14T15:08:52;8.82;;;2.83;;
46447;SDS011;32145;50.390;30.778;2023-05-14T15:11:46;6.10;;;2.80;;
46447;SDS011;32145;50.390;30.778;2023-05-14T15:14:41;5.45;;;2.97;;
46447;SDS011;32145;50.390;30.778;2023-05-14T15:17:37;5.47;;;2.80;;
46447;SDS011;32145;50.390;30.778;2023-05-14T15:20:31;7.60;;;2.88;;
46447;SDS011;32145;50.390;30.778;2023-05-14T15:23:27;6.97;;;3.25;;
46447;SDS011;32145;50.390;30.778;2023-05-14T15:26:24;6.03;;;2.90;;
46447;SDS011;32145;50.390;30.778;2023-05-14T15:29:20;4.97;;;3.00;;
46447;SDS011;32145;50.390;30.778;2023-05-14T15:32:16;5.78;;;2.80;;
46447;SDS011;32145;50.390;30.778;2023-05-14T15:35:12;8.38;;;2.63;;
46447;SDS011;32145;50.390;30.778;2023-05-14T15:38:09;9.95;;;3.03;;
46447;SDS011;32145;50.390;30.778;2023-05-14T15:41:06;6.13;;;2.90;;
46447;SDS011;32145;50.390;30.778;2023-05-14T15:44:03;5.68;;;2.80;;
46447;SDS011;32145;50.390;30.778;2023-05-14T15:46:57;6.40;;;2.90;;
46447;SDS011;32145;50.390;30.778;2023-05-14T15:49:52;5.65;;;2.72;;
46447;SDS011;32145;50.390;30.778;2023-05-14T15:52:46;4.95;;;2.75;;
46447;SDS011;32145;50.390;30.778;2023-05-14T15:55:43;6.45;;;2.67;;
46447;SDS011;32145;50.390;30.778;2023-05-14T15:58:40;8.98;;;2.83;;
46447;SDS011;32145;50.390;30.778;2023-05-14T16:01:36;4.60;;;2.72;;
46447;SDS011;32145;50.390;30.778;2023-05-14T16:04:31;8.60;;;2.95;;
46447;SDS011;32145;50.390;30.778;2023-05-14T16:07:25;8.85;;;3.10;;
46447;SDS011;32145;50.390;30.778;2023-05-14T16:10:20;6.95;;;3.00;;
46447;SDS011;32145;50.390;30.778;2023-05-14T16:13:14;6.28;;;3.05;;
46447;SDS011;32145;50.390;30.778;2023-05-14T16:16:11;7.47;;;2.97;;
46447;SDS011;32145;50.390;30.778;2023-05-14T16:19:08;8.52;;;3.10;;
46447;SDS011;32145;50.390;30.778;2023-05-14T16:22:02;6.70;;;3.03;;
46447;SDS011;32145;50.390;30.778;2023-05-14T16:24:57;5.55;;;3.28;;
46447;SDS011;32145;50.390;30.778;2023-05-14T16:27:51;8.27;;;3.40;;
46447;SDS011;32145;50.390;30.778;2023-05-14T16:30:45;11.60;;;3.20;;
46447;SDS011;32145;50.390;30.778;2023-05-14T16:33:41;6.75;;;3.20;;
46447;SDS011;32145;50.390;30.778;2023-05-14T16:36:35;11.73;;;3.08;;
46447;SDS011;32145;50.390;30.778;2023-05-14T16:39:29;8.75;;;3.70;;
46447;SDS011;32145;50.390;30.778;2023-05-14T16:42:24;9.70;;;3.38;;
46447;SDS011;32145;50.390;30.778;2023-05-14T16:45:18;4.82;;;3.17;;
46447;SDS011;32145;50.390;30.778;2023-05-14T16:48:12;8.35;;;3.28;;
46447;SDS011;32145;50.390;30.778;2023-05-14T16:51:08;7.75;;;3.20;;
46447;SDS011;32145;50.390;30.778;2023-05-14T16:54:02;12.35;;;3.97;;
46447;SDS011;32145;50.390;30.778;2023-05-14T16:56:59;8.48;;;3.35;;
46447;SDS011;32145;50.390;30.778;2023-05-14T16:59:55;7.90;;;3.60;;
46447;SDS011;32145;50.390;30.778;2023-05-14T17:02:51;8.05;;;3.50;;
46447;SDS011;32145;50.390;30.778;2023-05-14T17:05:48;10.63;;;4.03;;
46447;SDS011;32145;50.390;30.778;2023-05-14T17:08:45;10.68;;;3.70;;
46447;SDS011;32145;50.390;30.778;2023-05-14T17:11:42;10.30;;;3.75;;
46447;SDS011;32145;50.390;30.778;2023-05-14T17:14:38;6.00;;;3.30;;
46447;SDS011;32145;50.390;30.778;2023-05-14T17:17:34;9.43;;;3.58;;
46447;SDS011;32145;50.390;30.778;2023-05-14T17:20:28;7.80;;;3.30;;
46447;SDS011;32145;50.390;30.778;2023-05-14T17:23:23;7.78;;;4.57;;
46447;SDS011;32145;50.390;30.778;2023-05-14T17:26:18;7.97;;;4.25;;